sensor_id;sensor_type;location;lat;lon;timestamp;temperature;humidity
12901;DHT22;6518;50.930;5.344;2023-03-17T00:01:08;11.20;60.40
12901;DHT22;6518;50.930;5.344;2023-03-17T00:03:40;11.20;60.20
12901;DHT22;6518;50.930;5.344;2023-03-17T00:06:16;11.20;60.30
12901;DHT22;6518;50.930;5.344;2023-03-17T00:08:45;11.20;60.30
12901;DHT22;6518;50.930;5.344;2023-03-17T00:11:14;11.10;60.30
12901;DHT22;6518;50.930;5.344;2023-03-17T00:13:43;11.10;60.30
12901;DHT22;6518;50.930;5.344;2023-03-17T00:16:14;11.20;60.30
12901;DHT22;6518;50.930;5.344;2023-03-17T00:18:42;11.20;60.30
12901;DHT22;6518;50.930;5.344;2023-03-17T00:21:11;11.10;60.20
12901;DHT22;6518;50.930;5.344;2023-03-17T00:23:38;11.10;60.20
12901;DHT22;6518;50.930;5.344;2023-03-17T00:26:05;11.10;60.30
12901;DHT22;6518;50.930;5.344;2023-03-17T00:28:33;11.10;60.20
12901;DHT22;6518;50.930;5.344;2023-03-17T00:31:09;11.10;60.20
12901;DHT22;6518;50.930;5.344;2023-03-17T00:33:37;11.10;60.30
12901;DHT22;6518;50.930;5.344;2023-03-17T00:36:05;11.10;60.30
12901;DHT22;6518;50.930;5.344;2023-03-17T00:38:32;11.10;60.40
12901;DHT22;6518;50.930;5.344;2023-03-17T00:41:00;11.10;60.50
12901;DHT22;6518;50.930;5.344;2023-03-17T00:43:27;11.10;60.40
12901;DHT22;6518;50.930;5.344;2023-03-17T00:45:54;11.00;60.40
12901;DHT22;6518;50.930;5.344;2023-03-17T00:48:22;11.00;60.40
12901;DHT22;6518;50.930;5.344;2023-03-17T00:50:49;11.00;60.50
12901;DHT22;6518;50.930;5.344;2023-03-17T00:53:18;11.00;60.40
12901;DHT22;6518;50.930;5.344;2023-03-17T00:55:46;11.00;60.50
12901;DHT22;6518;50.930;5.344;2023-03-17T00:58:17;11.00;60.50
12901;DHT22;6518;50.930;5.344;2023-03-17T01:00:44;11.00;60.60
12901;DHT22;6518;50.930;5.344;2023-03-17T01:03:12;11.00;60.60
12901;DHT22;6518;50.930;5.344;2023-03-17T01:05:40;10.90;60.60
12901;DHT22;6518;50.930;5.344;2023-03-17T01:08:08;10.90;60.60
12901;DHT22;6518;50.930;5.344;2023-03-17T01:10:36;10.90;60.60
12901;DHT22;6518;50.930;5.344;2023-03-17T01:13:04;10.90;60.70
12901;DHT22;6518;50.930;5.344;2023-03-17T01:15:32;10.80;60.70
12901;DHT22;6518;50.930;5.344;2023-03-17T01:18:00;10.80;60.70
12901;DHT22;6518;50.930;5.344;2023-03-17T01:20:29;10.80;60.70
12901;DHT22;6518;50.930;5.344;2023-03-17T01:22:57;10.80;60.80
12901;DHT22;6518;50.930;5.344;2023-03-17T01:25:24;10.80;60.90
12901;DHT22;6518;50.930;5.344;2023-03-17T01:27:54;10.80;60.80
12901;DHT22;6518;50.930;5.344;2023-03-17T01:30:24;10.80;60.80
12901;DHT22;6518;50.930;5.344;2023-03-17T01:32:53;10.80;60.80
12901;DHT22;6518;50.930;5.344;2023-03-17T01:35:21;10.80;60.80
12901;DHT22;6518;50.930;5.344;2023-03-17T01:37:50;10.80;60.90
12901;DHT22;6518;50.930;5.344;2023-03-17T01:40:21;10.80;60.80
12901;DHT22;6518;50.930;5.344;2023-03-17T01:42:52;10.80;60.90
12901;DHT22;6518;50.930;5.344;2023-03-17T01:48:24;10.70;61.00
12901;DHT22;6518;50.930;5.344;2023-03-17T01:50:52;10.70;61.00
12901;DHT22;6518;50.930;5.344;2023-03-17T01:53:20;10.70;61.00
12901;DHT22;6518;50.930;5.344;2023-03-17T01:55:50;10.70;61.10
12901;DHT22;6518;50.930;5.344;2023-03-17T01:58:20;10.70;61.10
12901;DHT22;6518;50.930;5.344;2023-03-17T02:00:48;10.70;61.10
12901;DHT22;6518;50.930;5.344;2023-03-17T02:03:16;10.70;61.00
12901;DHT22;6518;50.930;5.344;2023-03-17T02:05:44;10.70;61.10
12901;DHT22;6518;50.930;5.344;2023-03-17T02:08:14;10.70;61.10
12901;DHT22;6518;50.930;5.344;2023-03-17T02:10:45;10.70;61.10
12901;DHT22;6518;50.930;5.344;2023-03-17T02:13:16;10.70;61.10
12901;DHT22;6518;50.930;5.344;2023-03-17T02:15:46;10.70;61.10
12901;DHT22;6518;50.930;5.344;2023-03-17T02:18:14;10.70;61.00
12901;DHT22;6518;50.930;5.344;2023-03-17T02:21:29;10.70;61.10
12901;DHT22;6518;50.930;5.344;2023-03-17T02:23:58;10.70;61.20
12901;DHT22;6518;50.930;5.344;2023-03-17T02:26:28;10.70;61.20
12901;DHT22;6518;50.930;5.344;2023-03-17T02:28:55;10.70;61.10
12901;DHT22;6518;50.930;5.344;2023-03-17T02:31:24;10.70;61.20
12901;DHT22;6518;50.930;5.344;2023-03-17T02:33:51;10.70;61.20
12901;DHT22;6518;50.930;5.344;2023-03-17T02:36:18;10.70;61.30
12901;DHT22;6518;50.930;5.344;2023-03-17T02:38:46;10.70;61.30
12901;DHT22;6518;50.930;5.344;2023-03-17T02:41:13;10.70;61.30
12901;DHT22;6518;50.930;5.344;2023-03-17T02:43:40;10.70;61.30
12901;DHT22;6518;50.930;5.344;2023-03-17T02:46:07;10.70;61.40
12901;DHT22;6518;50.930;5.344;2023-03-17T02:48:35;10.70;61.50
12901;DHT22;6518;50.930;5.344;2023-03-17T02:51:03;10.70;61.50
12901;DHT22;6518;50.930;5.344;2023-03-17T02:53:30;10.70;61.50
12901;DHT22;6518;50.930;5.344;2023-03-17T02:55:58;10.70;61.50
12901;DHT22;6518;50.930;5.344;2023-03-17T02:58:25;10.70;61.60
12901;DHT22;6518;50.930;5.344;2023-03-17T03:00:52;10.70;61.70
12901;DHT22;6518;50.930;5.344;2023-03-17T03:03:19;10.70;61.70
12901;DHT22;6518;50.930;5.344;2023-03-17T03:05:46;10.70;61.80
12901;DHT22;6518;50.930;5.344;2023-03-17T03:08:12;10.60;61.80
12901;DHT22;6518;50.930;5.344;2023-03-17T03:10:41;10.70;62.00
12901;DHT22;6518;50.930;5.344;2023-03-17T03:13:09;10.70;62.00
12901;DHT22;6518;50.930;5.344;2023-03-17T03:15:39;10.60;62.00
12901;DHT22;6518;50.930;5.344;2023-03-17T03:18:06;10.70;62.10
12901;DHT22;6518;50.930;5.344;2023-03-17T03:20:33;10.60;62.10
12901;DHT22;6518;50.930;5.344;2023-03-17T03:23:00;10.60;62.20
12901;DHT22;6518;50.930;5.344;2023-03-17T03:25:26;10.70;62.30
12901;DHT22;6518;50.930;5.344;2023-03-17T03:27:53;10.60;62.20
12901;DHT22;6518;50.930;5.344;2023-03-17T03:30:21;10.60;62.20
12901;DHT22;6518;50.930;5.344;2023-03-17T03:32:48;10.60;62.30
12901;DHT22;6518;50.930;5.344;2023-03-17T03:35:15;10.60;62.30
12901;DHT22;6518;50.930;5.344;2023-03-17T03:37:42;10.60;62.30
12901;DHT22;6518;50.930;5.344;2023-03-17T03:40:10;10.60;62.70
12901;DHT22;6518;50.930;5.344;2023-03-17T03:42:37;10.60;62.40
12901;DHT22;6518;50.930;5.344;2023-03-17T03:45:04;10.60;62.40
12901;DHT22;6518;50.930;5.344;2023-03-17T03:47:33;10.60;62.40
12901;DHT22;6518;50.930;5.344;2023-03-17T03:49:59;10.60;62.40
12901;DHT22;6518;50.930;5.344;2023-03-17T03:52:27;10.60;62.40
12901;DHT22;6518;50.930;5.344;2023-03-17T03:54:54;10.60;62.40
12901;DHT22;6518;50.930;5.344;2023-03-17T03:57:21;10.60;62.40
12901;DHT22;6518;50.930;5.344;2023-03-17T03:59:47;10.60;62.40
12901;DHT22;6518;50.930;5.344;2023-03-17T04:02:14;10.60;62.50
12901;DHT22;6518;50.930;5.344;2023-03-17T04:04:43;10.60;62.60
12901;DHT22;6518;50.930;5.344;2023-03-17T04:07:10;10.60;62.60
12901;DHT22;6518;50.930;5.344;2023-03-17T04:09:37;10.60;62.60
12901;DHT22;6518;50.930;5.344;2023-03-17T04:12:05;10.60;62.70
12901;DHT22;6518;50.930;5.344;2023-03-17T04:14:32;10.60;62.80
12901;DHT22;6518;50.930;5.344;2023-03-17T04:16:59;10.60;62.90
12901;DHT22;6518;50.930;5.344;2023-03-17T04:19:26;10.50;62.90
12901;DHT22;6518;50.930;5.344;2023-03-17T04:21:54;10.50;63.00
12901;DHT22;6518;50.930;5.344;2023-03-17T04:24:22;10.60;63.10
12901;DHT22;6518;50.930;5.344;2023-03-17T04:26:49;10.50;63.10
12901;DHT22;6518;50.930;5.344;2023-03-17T04:29:16;10.50;63.20
12901;DHT22;6518;50.930;5.344;2023-03-17T04:31:43;10.50;63.20
12901;DHT22;6518;50.930;5.344;2023-03-17T04:34:13;10.50;63.30
12901;DHT22;6518;50.930;5.344;2023-03-17T04:36:41;10.50;63.40
12901;DHT22;6518;50.930;5.344;2023-03-17T04:39:10;10.50;63.60
12901;DHT22;6518;50.930;5.344;2023-03-17T04:41:37;10.50;63.60
12901;DHT22;6518;50.930;5.344;2023-03-17T04:44:04;10.50;63.70
12901;DHT22;6518;50.930;5.344;2023-03-17T04:46:32;10.40;63.70
12901;DHT22;6518;50.930;5.344;2023-03-17T04:48:59;10.40;63.70
12901;DHT22;6518;50.930;5.344;2023-03-17T04:51:25;10.40;63.80
12901;DHT22;6518;50.930;5.344;2023-03-17T04:53:53;10.40;63.90
12901;DHT22;6518;50.930;5.344;2023-03-17T04:56:21;10.40;64.00
12901;DHT22;6518;50.930;5.344;2023-03-17T04:58:48;10.40;64.00
12901;DHT22;6518;50.930;5.344;2023-03-17T05:01:15;10.40;64.00
12901;DHT22;6518;50.930;5.344;2023-03-17T05:03:42;10.40;64.90
12901;DHT22;6518;50.930;5.344;2023-03-17T05:06:09;10.40;64.20
12901;DHT22;6518;50.930;5.344;2023-03-17T05:08:36;10.30;64.10
12901;DHT22;6518;50.930;5.344;2023-03-17T05:11:04;10.30;64.20
12901;DHT22;6518;50.930;5.344;2023-03-17T05:13:32;10.40;64.30
12901;DHT22;6518;50.930;5.344;2023-03-17T05:15:58;10.30;64.30
12901;DHT22;6518;50.930;5.344;2023-03-17T05:18:26;10.30;64.40
12901;DHT22;6518;50.930;5.344;2023-03-17T05:20:53;10.30;64.40
12901;DHT22;6518;50.930;5.344;2023-03-17T05:23:21;10.30;65.30
12901;DHT22;6518;50.930;5.344;2023-03-17T05:25:48;10.30;64.50
12901;DHT22;6518;50.930;5.344;2023-03-17T05:28:15;10.30;64.50
12901;DHT22;6518;50.930;5.344;2023-03-17T05:30:44;10.30;64.60
12901;DHT22;6518;50.930;5.344;2023-03-17T05:33:12;10.30;64.60
12901;DHT22;6518;50.930;5.344;2023-03-17T05:35:39;10.30;64.70
12901;DHT22;6518;50.930;5.344;2023-03-17T05:38:07;10.20;64.70
12901;DHT22;6518;50.930;5.344;2023-03-17T05:40:34;10.30;64.70
12901;DHT22;6518;50.930;5.344;2023-03-17T05:43:01;10.20;64.70
12901;DHT22;6518;50.930;5.344;2023-03-17T05:45:28;10.30;64.90
12901;DHT22;6518;50.930;5.344;2023-03-17T05:47:57;10.20;64.80
12901;DHT22;6518;50.930;5.344;2023-03-17T05:50:24;10.20;64.80
12901;DHT22;6518;50.930;5.344;2023-03-17T05:52:51;10.20;64.80
12901;DHT22;6518;50.930;5.344;2023-03-17T05:55:18;10.10;64.80
12901;DHT22;6518;50.930;5.344;2023-03-17T05:57:45;10.20;64.80
12901;DHT22;6518;50.930;5.344;2023-03-17T06:00:14;10.20;64.90
12901;DHT22;6518;50.930;5.344;2023-03-17T06:02:43;10.20;64.90
12901;DHT22;6518;50.930;5.344;2023-03-17T06:05:11;10.20;65.00
12901;DHT22;6518;50.930;5.344;2023-03-17T06:07:38;10.20;65.00
12901;DHT22;6518;50.930;5.344;2023-03-17T06:10:07;10.20;65.00
12901;DHT22;6518;50.930;5.344;2023-03-17T06:12:34;10.20;65.00
12901;DHT22;6518;50.930;5.344;2023-03-17T06:15:01;10.30;64.90
12901;DHT22;6518;50.930;5.344;2023-03-17T06:17:28;10.30;64.90
12901;DHT22;6518;50.930;5.344;2023-03-17T06:19:54;10.30;64.90
12901;DHT22;6518;50.930;5.344;2023-03-17T06:22:22;10.30;64.90
12901;DHT22;6518;50.930;5.344;2023-03-17T06:24:49;10.30;64.90
12901;DHT22;6518;50.930;5.344;2023-03-17T06:27:17;10.40;64.90
12901;DHT22;6518;50.930;5.344;2023-03-17T06:29:44;10.40;64.80
12901;DHT22;6518;50.930;5.344;2023-03-17T06:32:12;10.50;64.90
12901;DHT22;6518;50.930;5.344;2023-03-17T06:34:39;10.50;64.90
12901;DHT22;6518;50.930;5.344;2023-03-17T06:37:06;10.50;64.70
12901;DHT22;6518;50.930;5.344;2023-03-17T06:39:34;10.50;64.70
12901;DHT22;6518;50.930;5.344;2023-03-17T06:42:01;10.60;64.60
12901;DHT22;6518;50.930;5.344;2023-03-17T06:44:28;10.60;64.60
12901;DHT22;6518;50.930;5.344;2023-03-17T06:46:56;10.60;64.60
12901;DHT22;6518;50.930;5.344;2023-03-17T06:49:23;10.60;64.60
12901;DHT22;6518;50.930;5.344;2023-03-17T06:51:50;10.70;64.60
12901;DHT22;6518;50.930;5.344;2023-03-17T06:54:17;10.70;64.60
12901;DHT22;6518;50.930;5.344;2023-03-17T06:56:46;10.70;64.50
12901;DHT22;6518;50.930;5.344;2023-03-17T06:59:13;10.80;64.50
12901;DHT22;6518;50.930;5.344;2023-03-17T07:01:40;10.80;64.40
12901;DHT22;6518;50.930;5.344;2023-03-17T07:04:06;10.90;64.40
12901;DHT22;6518;50.930;5.344;2023-03-17T07:06:33;10.90;64.30
12901;DHT22;6518;50.930;5.344;2023-03-17T07:09:00;10.90;64.20
12901;DHT22;6518;50.930;5.344;2023-03-17T07:11:28;11.00;65.20
12901;DHT22;6518;50.930;5.344;2023-03-17T07:13:56;11.00;65.00
12901;DHT22;6518;50.930;5.344;2023-03-17T07:16:23;11.10;64.10
12901;DHT22;6518;50.930;5.344;2023-03-17T07:18:50;11.10;64.00
12901;DHT22;6518;50.930;5.344;2023-03-17T07:21:18;11.20;64.00
12901;DHT22;6518;50.930;5.344;2023-03-17T07:23:45;11.20;64.00
12901;DHT22;6518;50.930;5.344;2023-03-17T07:26:12;11.30;63.90
12901;DHT22;6518;50.930;5.344;2023-03-17T07:28:40;11.30;63.80
12901;DHT22;6518;50.930;5.344;2023-03-17T07:31:08;11.40;63.70
12901;DHT22;6518;50.930;5.344;2023-03-17T07:33:38;11.40;63.70
12901;DHT22;6518;50.930;5.344;2023-03-17T07:36:06;11.50;63.70
12901;DHT22;6518;50.930;5.344;2023-03-17T07:38:33;11.50;63.70
12901;DHT22;6518;50.930;5.344;2023-03-17T07:41:00;11.50;63.70
12901;DHT22;6518;50.930;5.344;2023-03-17T07:43:28;11.60;63.70
12901;DHT22;6518;50.930;5.344;2023-03-17T07:45:55;11.70;63.60
12901;DHT22;6518;50.930;5.344;2023-03-17T07:48:24;11.80;63.60
12901;DHT22;6518;50.930;5.344;2023-03-17T07:50:51;11.80;63.40
12901;DHT22;6518;50.930;5.344;2023-03-17T07:53:18;11.90;63.60
12901;DHT22;6518;50.930;5.344;2023-03-17T07:55:44;11.90;63.10
12901;DHT22;6518;50.930;5.344;2023-03-17T07:58:11;12.00;63.20
12901;DHT22;6518;50.930;5.344;2023-03-17T08:00:38;12.00;63.10
12901;DHT22;6518;50.930;5.344;2023-03-17T08:03:05;12.10;63.00
12901;DHT22;6518;50.930;5.344;2023-03-17T08:05:33;12.10;63.10
12901;DHT22;6518;50.930;5.344;2023-03-17T08:08:00;12.20;63.10
12901;DHT22;6518;50.930;5.344;2023-03-17T08:10:27;12.20;63.00
12901;DHT22;6518;50.930;5.344;2023-03-17T08:12:53;12.40;62.90
12901;DHT22;6518;50.930;5.344;2023-03-17T08:15:20;12.50;62.80
12901;DHT22;6518;50.930;5.344;2023-03-17T08:17:47;12.50;62.90
12901;DHT22;6518;50.930;5.344;2023-03-17T08:20:14;12.60;62.70
12901;DHT22;6518;50.930;5.344;2023-03-17T08:22:43;12.70;62.60
12901;DHT22;6518;50.930;5.344;2023-03-17T08:25:10;12.80;62.50
12901;DHT22;6518;50.930;5.344;2023-03-17T08:27:37;12.90;62.20
12901;DHT22;6518;50.930;5.344;2023-03-17T08:30:05;13.00;62.10
12901;DHT22;6518;50.930;5.344;2023-03-17T08:32:32;13.10;61.80
12901;DHT22;6518;50.930;5.344;2023-03-17T08:34:59;13.20;61.80
12901;DHT22;6518;50.930;5.344;2023-03-17T08:37:26;13.20;61.90
12901;DHT22;6518;50.930;5.344;2023-03-17T08:39:54;13.30;61.60
12901;DHT22;6518;50.930;5.344;2023-03-17T08:42:21;13.30;61.70
12901;DHT22;6518;50.930;5.344;2023-03-17T08:44:48;13.30;61.70
12901;DHT22;6518;50.930;5.344;2023-03-17T08:47:14;13.40;61.50
12901;DHT22;6518;50.930;5.344;2023-03-17T08:49:42;13.50;61.50
12901;DHT22;6518;50.930;5.344;2023-03-17T08:52:08;13.50;61.50
12901;DHT22;6518;50.930;5.344;2023-03-17T08:54:35;13.60;61.10
12901;DHT22;6518;50.930;5.344;2023-03-17T08:57:04;13.70;60.90
12901;DHT22;6518;50.930;5.344;2023-03-17T08:59:30;13.70;60.90
12901;DHT22;6518;50.930;5.344;2023-03-17T09:01:58;13.80;60.70
12901;DHT22;6518;50.930;5.344;2023-03-17T09:04:25;13.80;60.80
12901;DHT22;6518;50.930;5.344;2023-03-17T09:06:52;13.80;60.60
12901;DHT22;6518;50.930;5.344;2023-03-17T09:09:20;13.80;60.40
12901;DHT22;6518;50.930;5.344;2023-03-17T09:11:48;13.80;60.50
12901;DHT22;6518;50.930;5.344;2023-03-17T09:14:16;13.80;60.80
12901;DHT22;6518;50.930;5.344;2023-03-17T09:16:43;13.90;61.00
12901;DHT22;6518;50.930;5.344;2023-03-17T09:19:13;13.90;61.00
12901;DHT22;6518;50.930;5.344;2023-03-17T09:21:41;14.00;60.90
12901;DHT22;6518;50.930;5.344;2023-03-17T09:24:08;14.00;60.80
12901;DHT22;6518;50.930;5.344;2023-03-17T09:26:35;14.00;60.70
12901;DHT22;6518;50.930;5.344;2023-03-17T09:29:02;14.10;60.80
12901;DHT22;6518;50.930;5.344;2023-03-17T09:31:31;14.20;60.80
12901;DHT22;6518;50.930;5.344;2023-03-17T09:33:58;14.20;60.90
12901;DHT22;6518;50.930;5.344;2023-03-17T09:36:25;14.20;60.90
12901;DHT22;6518;50.930;5.344;2023-03-17T09:38:52;14.20;60.50
12901;DHT22;6518;50.930;5.344;2023-03-17T09:41:44;14.20;60.70
12901;DHT22;6518;50.930;5.344;2023-03-17T09:44:20;14.30;60.40
12901;DHT22;6518;50.930;5.344;2023-03-17T09:46:59;14.30;60.50
12901;DHT22;6518;50.930;5.344;2023-03-17T09:49:36;14.40;60.50
12901;DHT22;6518;50.930;5.344;2023-03-17T09:52:04;14.40;60.20
12901;DHT22;6518;50.930;5.344;2023-03-17T09:54:33;14.50;60.50
12901;DHT22;6518;50.930;5.344;2023-03-17T09:57:05;14.50;60.20
12901;DHT22;6518;50.930;5.344;2023-03-17T09:59:38;14.50;60.00
12901;DHT22;6518;50.930;5.344;2023-03-17T10:02:16;14.60;60.10
12901;DHT22;6518;50.930;5.344;2023-03-17T10:04:44;14.60;60.10
12901;DHT22;6518;50.930;5.344;2023-03-17T10:07:16;14.70;59.90
12901;DHT22;6518;50.930;5.344;2023-03-17T10:09:52;14.70;60.00
12901;DHT22;6518;50.930;5.344;2023-03-17T10:12:29;15.10;60.30
12901;DHT22;6518;50.930;5.344;2023-03-17T10:15:00;14.80;60.00
12901;DHT22;6518;50.930;5.344;2023-03-17T10:17:33;14.80;59.90
12901;DHT22;6518;50.930;5.344;2023-03-17T10:20:05;14.90;59.90
12901;DHT22;6518;50.930;5.344;2023-03-17T10:22:38;14.90;60.00
12901;DHT22;6518;50.930;5.344;2023-03-17T10:25:13;14.90;60.00
12901;DHT22;6518;50.930;5.344;2023-03-17T10:27:41;15.00;59.90
12901;DHT22;6518;50.930;5.344;2023-03-17T10:30:14;15.20;59.80
12901;DHT22;6518;50.930;5.344;2023-03-17T10:32:43;15.30;59.70
12901;DHT22;6518;50.930;5.344;2023-03-17T10:35:11;15.40;59.60
12901;DHT22;6518;50.930;5.344;2023-03-17T10:37:38;15.40;59.50
12901;DHT22;6518;50.930;5.344;2023-03-17T10:40:17;15.40;59.20
12901;DHT22;6518;50.930;5.344;2023-03-17T10:42:46;15.50;59.10
12901;DHT22;6518;50.930;5.344;2023-03-17T10:45:16;15.50;59.10
12901;DHT22;6518;50.930;5.344;2023-03-17T10:47:50;15.60;59.00
12901;DHT22;6518;50.930;5.344;2023-03-17T10:50:22;15.60;58.80
12901;DHT22;6518;50.930;5.344;2023-03-17T10:52:57;15.60;58.90
12901;DHT22;6518;50.930;5.344;2023-03-17T10:55:27;15.70;58.80
12901;DHT22;6518;50.930;5.344;2023-03-17T10:58:01;15.70;59.00
12901;DHT22;6518;50.930;5.344;2023-03-17T11:00:29;16.40;59.30
12901;DHT22;6518;50.930;5.344;2023-03-17T11:03:03;15.90;59.20
12901;DHT22;6518;50.930;5.344;2023-03-17T11:05:34;15.90;59.10
12901;DHT22;6518;50.930;5.344;2023-03-17T11:08:07;16.00;59.10
12901;DHT22;6518;50.930;5.344;2023-03-17T11:10:37;16.10;59.00
12901;DHT22;6518;50.930;5.344;2023-03-17T11:13:04;16.10;58.90
12901;DHT22;6518;50.930;5.344;2023-03-17T11:15:34;16.10;59.00
12901;DHT22;6518;50.930;5.344;2023-03-17T11:18:09;16.20;59.10
12901;DHT22;6518;50.930;5.344;2023-03-17T11:20:47;16.20;59.00
12901;DHT22;6518;50.930;5.344;2023-03-17T11:26:30;16.30;58.90
12901;DHT22;6518;50.930;5.344;2023-03-17T11:29:17;16.40;58.90
12901;DHT22;6518;50.930;5.344;2023-03-17T11:31:50;16.40;58.90
12901;DHT22;6518;50.930;5.344;2023-03-17T11:34:29;16.50;58.90
12901;DHT22;6518;50.930;5.344;2023-03-17T11:37:04;16.50;58.90
12901;DHT22;6518;50.930;5.344;2023-03-17T11:39:40;16.50;59.00
12901;DHT22;6518;50.930;5.344;2023-03-17T11:42:13;16.60;59.10
12901;DHT22;6518;50.930;5.344;2023-03-17T11:45:07;16.70;59.20
12901;DHT22;6518;50.930;5.344;2023-03-17T11:48:12;16.70;59.20
12901;DHT22;6518;50.930;5.344;2023-03-17T11:50:50;16.80;59.30
12901;DHT22;6518;50.930;5.344;2023-03-17T11:56:32;16.90;59.30
12901;DHT22;6518;50.930;5.344;2023-03-17T11:59:02;17.00;59.30
12901;DHT22;6518;50.930;5.344;2023-03-17T12:01:38;17.00;59.30
12901;DHT22;6518;50.930;5.344;2023-03-17T12:04:10;17.10;59.20
12901;DHT22;6518;50.930;5.344;2023-03-17T12:06:47;17.10;59.10
12901;DHT22;6518;50.930;5.344;2023-03-17T12:09:22;17.20;58.90
12901;DHT22;6518;50.930;5.344;2023-03-17T12:11:51;17.30;58.90
12901;DHT22;6518;50.930;5.344;2023-03-17T12:14:24;17.40;58.60
12901;DHT22;6518;50.930;5.344;2023-03-17T12:16:57;17.40;58.50
12901;DHT22;6518;50.930;5.344;2023-03-17T12:19:31;17.40;58.60
12901;DHT22;6518;50.930;5.344;2023-03-17T12:22:05;17.50;58.50
12901;DHT22;6518;50.930;5.344;2023-03-17T12:24:37;17.50;58.40
12901;DHT22;6518;50.930;5.344;2023-03-17T12:27:09;17.60;58.50
12901;DHT22;6518;50.930;5.344;2023-03-17T12:29:40;17.60;58.40
12901;DHT22;6518;50.930;5.344;2023-03-17T12:32:15;17.60;58.40
12901;DHT22;6518;50.930;5.344;2023-03-17T12:34:48;17.70;58.50
12901;DHT22;6518;50.930;5.344;2023-03-17T12:37:18;17.70;58.50
12901;DHT22;6518;50.930;5.344;2023-03-17T12:39:51;17.80;58.50
12901;DHT22;6518;50.930;5.344;2023-03-17T12:42:35;17.80;58.50
12901;DHT22;6518;50.930;5.344;2023-03-17T12:45:20;17.90;58.40
12901;DHT22;6518;50.930;5.344;2023-03-17T12:48:02;17.90;58.40
12901;DHT22;6518;50.930;5.344;2023-03-17T12:50:51;18.00;58.30
12901;DHT22;6518;50.930;5.344;2023-03-17T12:53:33;18.00;58.10
12901;DHT22;6518;50.930;5.344;2023-03-17T12:56:10;18.00;57.90
12901;DHT22;6518;50.930;5.344;2023-03-17T12:58:42;18.00;58.40
12901;DHT22;6518;50.930;5.344;2023-03-17T13:01:19;17.90;57.80
12901;DHT22;6518;50.930;5.344;2023-03-17T13:04:14;17.90;57.80
12901;DHT22;6518;50.930;5.344;2023-03-17T13:06:43;17.90;57.90
12901;DHT22;6518;50.930;5.344;2023-03-17T13:09:44;17.90;57.80
12901;DHT22;6518;50.930;5.344;2023-03-17T13:12:34;18.00;57.90
12901;DHT22;6518;50.930;5.344;2023-03-17T13:15:01;18.10;57.90
12901;DHT22;6518;50.930;5.344;2023-03-17T13:17:32;18.20;57.70
12901;DHT22;6518;50.930;5.344;2023-03-17T13:20:16;18.20;57.60
12901;DHT22;6518;50.930;5.344;2023-03-17T13:23:00;18.30;57.60
12901;DHT22;6518;50.930;5.344;2023-03-17T13:25:32;18.40;57.60
12901;DHT22;6518;50.930;5.344;2023-03-17T13:28:20;18.40;57.60
12901;DHT22;6518;50.930;5.344;2023-03-17T13:30:55;18.50;57.60
12901;DHT22;6518;50.930;5.344;2023-03-17T13:33:29;18.60;57.70
12901;DHT22;6518;50.930;5.344;2023-03-17T13:36:07;18.60;57.30
12901;DHT22;6518;50.930;5.344;2023-03-17T13:38:49;18.70;57.10
12901;DHT22;6518;50.930;5.344;2023-03-17T13:41:29;18.80;56.40
12901;DHT22;6518;50.930;5.344;2023-03-17T13:44:20;18.80;56.50
12901;DHT22;6518;50.930;5.344;2023-03-17T13:46:49;18.90;56.20
12901;DHT22;6518;50.930;5.344;2023-03-17T13:49:23;18.90;56.10
12901;DHT22;6518;50.930;5.344;2023-03-17T13:51:54;18.90;55.50
12901;DHT22;6518;50.930;5.344;2023-03-17T13:54:30;18.90;55.60
12901;DHT22;6518;50.930;5.344;2023-03-17T13:57:24;18.90;55.30
12901;DHT22;6518;50.930;5.344;2023-03-17T14:00:00;18.90;54.80
12901;DHT22;6518;50.930;5.344;2023-03-17T14:02:29;18.90;54.60
12901;DHT22;6518;50.930;5.344;2023-03-17T14:04:59;18.90;54.80
12901;DHT22;6518;50.930;5.344;2023-03-17T14:07:30;18.90;54.60
12901;DHT22;6518;50.930;5.344;2023-03-17T14:10:00;18.90;54.50
12901;DHT22;6518;50.930;5.344;2023-03-17T14:12:37;18.80;54.50
12901;DHT22;6518;50.930;5.344;2023-03-17T14:15:10;18.80;54.50
12901;DHT22;6518;50.930;5.344;2023-03-17T14:17:44;18.80;54.50
12901;DHT22;6518;50.930;5.344;2023-03-17T14:20:20;18.80;54.60
12901;DHT22;6518;50.930;5.344;2023-03-17T14:22:53;18.70;54.70
12901;DHT22;6518;50.930;5.344;2023-03-17T14:25:23;18.70;54.70
12901;DHT22;6518;50.930;5.344;2023-03-17T14:27:53;18.70;54.70
12901;DHT22;6518;50.930;5.344;2023-03-17T14:30:22;18.70;54.80
12901;DHT22;6518;50.930;5.344;2023-03-17T14:32:54;18.70;54.90
12901;DHT22;6518;50.930;5.344;2023-03-17T14:35:21;18.70;54.90
12901;DHT22;6518;50.930;5.344;2023-03-17T14:37:48;18.60;54.20
12901;DHT22;6518;50.930;5.344;2023-03-17T14:40:21;18.60;54.80
12901;DHT22;6518;50.930;5.344;2023-03-17T14:42:48;18.60;54.80
12901;DHT22;6518;50.930;5.344;2023-03-17T14:45:26;18.60;54.90
12901;DHT22;6518;50.930;5.344;2023-03-17T14:47:54;18.60;54.80
12901;DHT22;6518;50.930;5.344;2023-03-17T14:50:25;18.60;54.90
12901;DHT22;6518;50.930;5.344;2023-03-17T14:52:53;18.60;54.80
12901;DHT22;6518;50.930;5.344;2023-03-17T14:55:20;18.60;54.70
12901;DHT22;6518;50.930;5.344;2023-03-17T14:57:51;18.50;54.30
12901;DHT22;6518;50.930;5.344;2023-03-17T15:00:33;18.50;54.00
12901;DHT22;6518;50.930;5.344;2023-03-17T15:03:03;18.50;53.90
12901;DHT22;6518;50.930;5.344;2023-03-17T15:05:42;18.50;53.80
12901;DHT22;6518;50.930;5.344;2023-03-17T15:08:39;18.40;53.70
12901;DHT22;6518;50.930;5.344;2023-03-17T15:11:13;18.40;53.70
12901;DHT22;6518;50.930;5.344;2023-03-17T15:13:41;18.30;53.80
12901;DHT22;6518;50.930;5.344;2023-03-17T15:16:16;18.30;53.90
12901;DHT22;6518;50.930;5.344;2023-03-17T15:18:44;18.20;53.90
12901;DHT22;6518;50.930;5.344;2023-03-17T15:21:22;18.20;53.80
12901;DHT22;6518;50.930;5.344;2023-03-17T15:23:49;18.10;53.90
12901;DHT22;6518;50.930;5.344;2023-03-17T15:26:27;18.00;54.00
12901;DHT22;6518;50.930;5.344;2023-03-17T15:28:57;18.00;54.10
12901;DHT22;6518;50.930;5.344;2023-03-17T15:31:26;17.90;54.00
12901;DHT22;6518;50.930;5.344;2023-03-17T15:33:55;17.90;54.10
12901;DHT22;6518;50.930;5.344;2023-03-17T15:36:23;17.80;54.20
12901;DHT22;6518;50.930;5.344;2023-03-17T15:38:50;17.80;54.20
12901;DHT22;6518;50.930;5.344;2023-03-17T15:41:18;17.80;54.40
12901;DHT22;6518;50.930;5.344;2023-03-17T15:43:45;17.70;54.50
12901;DHT22;6518;50.930;5.344;2023-03-17T15:46:20;17.70;54.60
12901;DHT22;6518;50.930;5.344;2023-03-17T15:48:49;17.70;54.70
12901;DHT22;6518;50.930;5.344;2023-03-17T15:51:16;17.70;54.80
12901;DHT22;6518;50.930;5.344;2023-03-17T15:53:43;17.60;54.80
12901;DHT22;6518;50.930;5.344;2023-03-17T15:56:15;17.60;54.90
12901;DHT22;6518;50.930;5.344;2023-03-17T15:58:44;17.60;55.00
12901;DHT22;6518;50.930;5.344;2023-03-17T16:01:11;17.50;55.00
12901;DHT22;6518;50.930;5.344;2023-03-17T16:03:38;17.50;55.10
12901;DHT22;6518;50.930;5.344;2023-03-17T16:06:14;17.40;55.20
12901;DHT22;6518;50.930;5.344;2023-03-17T16:08:41;17.30;55.80
12901;DHT22;6518;50.930;5.344;2023-03-17T16:11:13;17.30;55.40
12901;DHT22;6518;50.930;5.344;2023-03-17T16:13:41;17.30;55.50